sensor_id;sensor_type;location;lat;lon;timestamp;P1;durP1;ratioP1;P2;durP2;ratioP2
4096;SDS011;2062;50.694;7.246;2023-10-08T00:02:04;8.80;;;2.78;;
4096;SDS011;2062;50.694;7.246;2023-10-08T00:04:31;8.50;;;2.47;;
4096;SDS011;2062;50.694;7.246;2023-10-08T00:07:03;6.83;;;2.03;;
4096;SDS011;2062;50.694;7.246;2023-10-08T00:09:32;8.15;;;2.28;;
4096;SDS011;2062;50.694;7.246;2023-10-08T00:12:02;7.88;;;2.05;;
4096;SDS011;2062;50.694;7.246;2023-10-08T00:14:29;6.88;;;2.45;;
4096;SDS011;2062;50.694;7.246;2023-10-08T00:16:57;10.93;;;2.85;;
4096;SDS011;2062;50.694;7.246;2023-10-08T00:19:25;11.00;;;2.50;;
4096;SDS011;2062;50.694;7.246;2023-10-08T00:21:58;7.20;;;2.10;;
4096;SDS011;2062;50.694;7.246;2023-10-08T00:24:31;6.53;;;2.30;;
4096;SDS011;2062;50.694;7.246;2023-10-08T00:26:58;7.68;;;2.22;;
4096;SDS011;2062;50.694;7.246;2023-10-08T00:29:25;11.38;;;2.55;;
4096;SDS011;2062;50.694;7.246;2023-10-08T00:31:56;8.90;;;2.47;;
4096;SDS011;2062;50.694;7.246;2023-10-08T00:34:24;8.07;;;2.17;;
4096;SDS011;2062;50.694;7.246;2023-10-08T00:36:52;6.75;;;2.20;;
4096;SDS011;2062;50.694;7.246;2023-10-08T00:39:19;6.70;;;2.00;;
4096;SDS011;2062;50.694;7.246;2023-10-08T00:41:50;7.75;;;2.33;;
4096;SDS011;2062;50.694;7.246;2023-10-08T00:44:23;8.40;;;2.27;;
4096;SDS011;2062;50.694;7.246;2023-10-08T00:46:54;8.18;;;2.17;;
4096;SDS011;2062;50.694;7.246;2023-10-08T00:49:25;7.97;;;2.40;;
4096;SDS011;2062;50.694;7.246;2023-10-08T00:52:13;8.32;;;2.45;;
4096;SDS011;2062;50.694;7.246;2023-10-08T00:54:54;10.02;;;2.30;;
4096;SDS011;2062;50.694;7.246;2023-10-08T00:57:35;6.37;;;2.27;;
4096;SDS011;2062;50.694;7.246;2023-10-08T01:00:07;6.72;;;2.10;;
4096;SDS011;2062;50.694;7.246;2023-10-08T01:02:42;10.75;;;2.47;;
4096;SDS011;2062;50.694;7.246;2023-10-08T01:05:11;7.85;;;2.40;;
4096;SDS011;2062;50.694;7.246;2023-10-08T01:07:39;8.38;;;2.85;;
4096;SDS011;2062;50.694;7.246;2023-10-08T01:10:10;8.90;;;2.10;;
4096;SDS011;2062;50.694;7.246;2023-10-08T01:12:40;7.60;;;2.25;;
4096;SDS011;2062;50.694;7.246;2023-10-08T01:15:20;7.72;;;2.13;;
4096;SDS011;2062;50.694;7.246;2023-10-08T01:17:53;7.35;;;2.40;;
4096;SDS011;2062;50.694;7.246;2023-10-08T01:20:24;6.60;;;2.35;;
4096;SDS011;2062;50.694;7.246;2023-10-08T01:23:00;8.30;;;2.30;;
4096;SDS011;2062;50.694;7.246;2023-10-08T01:25:29;8.13;;;2.80;;
4096;SDS011;2062;50.694;7.246;2023-10-08T01:27:55;9.48;;;2.60;;
4096;SDS011;2062;50.694;7.246;2023-10-08T01:30:25;9.98;;;2.75;;
4096;SDS011;2062;50.694;7.246;2023-10-08T01:32:59;7.45;;;2.50;;
4096;SDS011;2062;50.694;7.246;2023-10-08T01:35:28;6.10;;;2.23;;
4096;SDS011;2062;50.694;7.246;2023-10-08T01:37:56;7.80;;;2.70;;
4096;SDS011;2062;50.694;7.246;2023-10-08T01:40:26;7.22;;;2.38;;
4096;SDS011;2062;50.694;7.246;2023-10-08T01:42:54;8.23;;;2.42;;
4096;SDS011;2062;50.694;7.246;2023-10-08T01:45:24;6.35;;;2.00;;
4096;SDS011;2062;50.694;7.246;2023-10-08T01:47:51;7.23;;;2.67;;
4096;SDS011;2062;50.694;7.246;2023-10-08T01:50:20;7.97;;;2.50;;
4096;SDS011;2062;50.694;7.246;2023-10-08T01:52:47;9.30;;;2.40;;
4096;SDS011;2062;50.694;7.246;2023-10-08T01:55:14;7.28;;;2.40;;
4096;SDS011;2062;50.694;7.246;2023-10-08T01:57:44;7.20;;;2.50;;
4096;SDS011;2062;50.694;7.246;2023-10-08T02:00:12;7.80;;;2.13;;
4096;SDS011;2062;50.694;7.246;2023-10-08T02:02:44;7.97;;;2.15;;
4096;SDS011;2062;50.694;7.246;2023-10-08T02:05:11;6.68;;;2.17;;
4096;SDS011;2062;50.694;7.246;2023-10-08T02:07:40;7.05;;;2.30;;
4096;SDS011;2062;50.694;7.246;2023-10-08T02:10:07;9.05;;;2.35;;
4096;SDS011;2062;50.694;7.246;2023-10-08T02:12:35;6.50;;;2.40;;
4096;SDS011;2062;50.694;7.246;2023-10-08T02:15:04;7.80;;;2.15;;
4096;SDS011;2062;50.694;7.246;2023-10-08T02:17:32;11.93;;;2.35;;
4096;SDS011;2062;50.694;7.246;2023-10-08T02:19:58;8.05;;;2.10;;
4096;SDS011;2062;50.694;7.246;2023-10-08T02:22:25;6.15;;;2.40;;
4096;SDS011;2062;50.694;7.246;2023-10-08T02:24:54;8.80;;;2.70;;
4096;SDS011;2062;50.694;7.246;2023-10-08T02:27:26;7.03;;;2.47;;
4096;SDS011;2062;50.694;7.246;2023-10-08T02:29:53;9.48;;;2.40;;
4096;SDS011;2062;50.694;7.246;2023-10-08T02:32:21;8.35;;;2.25;;
4096;SDS011;2062;50.694;7.246;2023-10-08T02:34:48;8.60;;;2.42;;
4096;SDS011;2062;50.694;7.246;2023-10-08T02:37:16;7.83;;;2.57;;
4096;SDS011;2062;50.694;7.246;2023-10-08T02:39:44;8.35;;;2.70;;
4096;SDS011;2062;50.694;7.246;2023-10-08T02:42:11;7.35;;;2.50;;
4096;SDS011;2062;50.694;7.246;2023-10-08T02:44:39;7.15;;;2.20;;
4096;SDS011;2062;50.694;7.246;2023-10-08T02:47:08;9.75;;;2.70;;
4096;SDS011;2062;50.694;7.246;2023-10-08T02:49:38;9.87;;;2.13;;
4096;SDS011;2062;50.694;7.246;2023-10-08T02:52:06;7.68;;;2.25;;
4096;SDS011;2062;50.694;7.246;2023-10-08T02:54:34;7.38;;;2.25;;
4096;SDS011;2062;50.694;7.246;2023-10-08T02:57:02;11.68;;;2.28;;
4096;SDS011;2062;50.694;7.246;2023-10-08T02:59:36;7.55;;;2.28;;
4096;SDS011;2062;50.694;7.246;2023-10-08T03:02:06;9.47;;;2.40;;
4096;SDS011;2062;50.694;7.246;2023-10-08T03:04:41;7.82;;;2.63;;
4096;SDS011;2062;50.694;7.246;2023-10-08T03:07:10;7.53;;;2.47;;
4096;SDS011;2062;50.694;7.246;2023-10-08T03:09:46;7.53;;;2.33;;
4096;SDS011;2062;50.694;7.246;2023-10-08T03:12:15;7.82;;;2.42;;
4096;SDS011;2062;50.694;7.246;2023-10-08T03:14:42;8.83;;;2.43;;
4096;SDS011;2062;50.694;7.246;2023-10-08T03:17:25;7.43;;;2.00;;
4096;SDS011;2062;50.694;7.246;2023-10-08T03:19:55;7.70;;;2.65;;
4096;SDS011;2062;50.694;7.246;2023-10-08T03:22:42;8.10;;;2.20;;
4096;SDS011;2062;50.694;7.246;2023-10-08T03:25:11;8.30;;;2.58;;
4096;SDS011;2062;50.694;7.246;2023-10-08T03:27:41;8.67;;;2.53;;
4096;SDS011;2062;50.694;7.246;2023-10-08T03:30:08;8.55;;;2.30;;
4096;SDS011;2062;50.694;7.246;2023-10-08T03:32:39;7.53;;;2.45;;
4096;SDS011;2062;50.694;7.246;2023-10-08T03:35:09;7.85;;;2.50;;
4096;SDS011;2062;50.694;7.246;2023-10-08T03:37:37;7.38;;;2.50;;
4096;SDS011;2062;50.694;7.246;2023-10-08T03:40:11;11.53;;;2.30;;
4096;SDS011;2062;50.694;7.246;2023-10-08T03:42:50;9.57;;;2.80;;
4096;SDS011;2062;50.694;7.246;2023-10-08T03:45:17;7.43;;;2.50;;
4096;SDS011;2062;50.694;7.246;2023-10-08T03:47:58;7.72;;;2.53;;
4096;SDS011;2062;50.694;7.246;2023-10-08T03:50:32;7.88;;;2.60;;
4096;SDS011;2062;50.694;7.246;2023-10-08T03:53:06;7.00;;;2.40;;
4096;SDS011;2062;50.694;7.246;2023-10-08T03:55:36;6.28;;;2.03;;
4096;SDS011;2062;50.694;7.246;2023-10-08T03:58:05;8.93;;;2.45;;
4096;SDS011;2062;50.694;7.246;2023-10-08T04:00:36;6.35;;;2.45;;
4096;SDS011;2062;50.694;7.246;2023-10-08T04:03:07;8.27;;;2.42;;
4096;SDS011;2062;50.694;7.246;2023-10-08T04:05:39;8.53;;;2.43;;
4096;SDS011;2062;50.694;7.246;2023-10-08T04:08:24;6.97;;;2.30;;
4096;SDS011;2062;50.694;7.246;2023-10-08T04:11:07;7.85;;;2.67;;
4096;SDS011;2062;50.694;7.246;2023-10-08T04:13:47;6.93;;;2.60;;
4096;SDS011;2062;50.694;7.246;2023-10-08T04:16:17;7.05;;;1.90;;
4096;SDS011;2062;50.694;7.246;2023-10-08T04:18:45;6.43;;;2.43;;
4096;SDS011;2062;50.694;7.246;2023-10-08T04:21:16;9.05;;;2.72;;
4096;SDS011;2062;50.694;7.246;2023-10-08T04:23:45;6.88;;;2.45;;
4096;SDS011;2062;50.694;7.246;2023-10-08T04:26:16;7.75;;;2.47;;
4096;SDS011;2062;50.694;7.246;2023-10-08T04:28:43;10.38;;;2.83;;
4096;SDS011;2062;50.694;7.246;2023-10-08T04:31:13;9.83;;;2.50;;
4096;SDS011;2062;50.694;7.246;2023-10-08T04:33:43;7.88;;;2.65;;
4096;SDS011;2062;50.694;7.246;2023-10-08T04:36:12;9.20;;;2.80;;
4096;SDS011;2062;50.694;7.246;2023-10-08T04:38:44;8.98;;;2.45;;
4096;SDS011;2062;50.694;7.246;2023-10-08T04:41:13;7.63;;;2.53;;
4096;SDS011;2062;50.694;7.246;2023-10-08T04:43:44;10.63;;;2.93;;
4096;SDS011;2062;50.694;7.246;2023-10-08T04:46:14;8.98;;;2.80;;
4096;SDS011;2062;50.694;7.246;2023-10-08T04:48:59;8.77;;;2.80;;
4096;SDS011;2062;50.694;7.246;2023-10-08T04:51:30;9.63;;;2.65;;
4096;SDS011;2062;50.694;7.246;2023-10-08T04:54:01;8.38;;;2.80;;
4096;SDS011;2062;50.694;7.246;2023-10-08T04:56:30;8.53;;;2.50;;
4096;SDS011;2062;50.694;7.246;2023-10-08T04:58:58;9.02;;;2.60;;
4096;SDS011;2062;50.694;7.246;2023-10-08T05:01:25;9.57;;;3.05;;
4096;SDS011;2062;50.694;7.246;2023-10-08T05:04:03;7.00;;;2.40;;
4096;SDS011;2062;50.694;7.246;2023-10-08T05:06:48;9.15;;;2.65;;
4096;SDS011;2062;50.694;7.246;2023-10-08T05:09:27;9.87;;;2.73;;
4096;SDS011;2062;50.694;7.246;2023-10-08T05:12:11;8.15;;;2.90;;
4096;SDS011;2062;50.694;7.246;2023-10-08T05:14:55;7.70;;;2.70;;
4096;SDS011;2062;50.694;7.246;2023-10-08T05:17:42;8.50;;;2.33;;
4096;SDS011;2062;50.694;7.246;2023-10-08T05:20:23;9.45;;;2.85;;
4096;SDS011;2062;50.694;7.246;2023-10-08T05:23:06;9.70;;;2.60;;
4096;SDS011;2062;50.694;7.246;2023-10-08T05:25:47;10.88;;;2.83;;
4096;SDS011;2062;50.694;7.246;2023-10-08T05:28:34;7.80;;;2.67;;
4096;SDS011;2062;50.694;7.246;2023-10-08T05:31:06;9.65;;;2.90;;
4096;SDS011;2062;50.694;7.246;2023-10-08T05:33:56;10.40;;;2.80;;
4096;SDS011;2062;50.694;7.246;2023-10-08T05:36:39;7.17;;;2.30;;
4096;SDS011;2062;50.694;7.246;2023-10-08T05:39:35;10.88;;;2.60;;
4096;SDS011;2062;50.694;7.246;2023-10-08T05:42:07;7.88;;;2.80;;
4096;SDS011;2062;50.694;7.246;2023-10-08T05:44:42;11.93;;;2.65;;
4096;SDS011;2062;50.694;7.246;2023-10-08T05:47:11;10.38;;;2.65;;
4096;SDS011;2062;50.694;7.246;2023-10-08T05:50:03;6.60;;;2.53;;
4096;SDS011;2062;50.694;7.246;2023-10-08T05:52:48;8.55;;;2.58;;
4096;SDS011;2062;50.694;7.246;2023-10-08T05:55:28;8.10;;;2.63;;
4096;SDS011;2062;50.694;7.246;2023-10-08T05:58:02;9.07;;;2.78;;
4096;SDS011;2062;50.694;7.246;2023-10-08T06:00:49;8.52;;;2.90;;
4096;SDS011;2062;50.694;7.246;2023-10-08T06:03:33;9.10;;;2.67;;
4096;SDS011;2062;50.694;7.246;2023-10-08T06:06:02;8.25;;;2.40;;
4096;SDS011;2062;50.694;7.246;2023-10-08T06:08:48;8.80;;;2.50;;
4096;SDS011;2062;50.694;7.246;2023-10-08T06:11:17;9.48;;;2.80;;
4096;SDS011;2062;50.694;7.246;2023-10-08T06:14:03;8.38;;;2.70;;
4096;SDS011;2062;50.694;7.246;2023-10-08T06:16:38;9.63;;;2.47;;
4096;SDS011;2062;50.694;7.246;2023-10-08T06:19:09;8.65;;;2.63;;
4096;SDS011;2062;50.694;7.246;2023-10-08T06:21:36;7.35;;;2.70;;
4096;SDS011;2062;50.694;7.246;2023-10-08T06:24:04;7.25;;;2.92;;
4096;SDS011;2062;50.694;7.246;2023-10-08T06:26:34;8.10;;;2.60;;
4096;SDS011;2062;50.694;7.246;2023-10-08T06:29:09;7.40;;;2.70;;
4096;SDS011;2062;50.694;7.246;2023-10-08T06:31:52;7.65;;;2.60;;
4096;SDS011;2062;50.694;7.246;2023-10-08T06:34:20;7.88;;;2.50;;
4096;SDS011;2062;50.694;7.246;2023-10-08T06:36:48;8.10;;;2.78;;
4096;SDS011;2062;50.694;7.246;2023-10-08T06:39:19;6.55;;;2.53;;
4096;SDS011;2062;50.694;7.246;2023-10-08T06:41:50;9.30;;;2.70;;
4096;SDS011;2062;50.694;7.246;2023-10-08T06:44:20;8.27;;;2.85;;
4096;SDS011;2062;50.694;7.246;2023-10-08T06:46:47;9.85;;;2.95;;
4096;SDS011;2062;50.694;7.246;2023-10-08T06:49:17;9.13;;;3.03;;
4096;SDS011;2062;50.694;7.246;2023-10-08T06:51:48;8.88;;;2.60;;
4096;SDS011;2062;50.694;7.246;2023-10-08T06:54:16;10.07;;;2.50;;
4096;SDS011;2062;50.694;7.246;2023-10-08T06:56:43;9.02;;;3.13;;
4096;SDS011;2062;50.694;7.246;2023-10-08T06:59:11;7.70;;;2.78;;
4096;SDS011;2062;50.694;7.246;2023-10-08T07:01:40;9.68;;;3.00;;
4096;SDS011;2062;50.694;7.246;2023-10-08T07:04:10;9.55;;;2.80;;
4096;SDS011;2062;50.694;7.246;2023-10-08T07:06:38;8.10;;;2.80;;
4096;SDS011;2062;50.694;7.246;2023-10-08T07:09:05;8.32;;;2.60;;
4096;SDS011;2062;50.694;7.246;2023-10-08T07:11:47;9.65;;;2.80;;
4096;SDS011;2062;50.694;7.246;2023-10-08T07:14:14;9.07;;;2.67;;
4096;SDS011;2062;50.694;7.246;2023-10-08T07:16:42;8.07;;;2.90;;
4096;SDS011;2062;50.694;7.246;2023-10-08T07:19:09;8.43;;;2.90;;
4096;SDS011;2062;50.694;7.246;2023-10-08T07:21:43;9.38;;;2.95;;
4096;SDS011;2062;50.694;7.246;2023-10-08T07:24:10;10.45;;;3.08;;
4096;SDS011;2062;50.694;7.246;2023-10-08T07:26:40;7.35;;;2.83;;
4096;SDS011;2062;50.694;7.246;2023-10-08T07:29:12;8.15;;;2.63;;
4096;SDS011;2062;50.694;7.246;2023-10-08T07:31:43;9.93;;;3.30;;
4096;SDS011;2062;50.694;7.246;2023-10-08T07:34:14;9.10;;;2.67;;
4096;SDS011;2062;50.694;7.246;2023-10-08T07:36:43;8.48;;;3.03;;
4096;SDS011;2062;50.694;7.246;2023-10-08T07:39:12;12.02;;;3.13;;
4096;SDS011;2062;50.694;7.246;2023-10-08T07:41:50;8.45;;;2.97;;
4096;SDS011;2062;50.694;7.246;2023-10-08T07:44:18;8.67;;;2.53;;
4096;SDS011;2062;50.694;7.246;2023-10-08T07:46:47;9.35;;;3.00;;
4096;SDS011;2062;50.694;7.246;2023-10-08T07:49:15;9.00;;;2.80;;
4096;SDS011;2062;50.694;7.246;2023-10-08T07:51:42;7.53;;;2.45;;
4096;SDS011;2062;50.694;7.246;2023-10-08T07:54:15;8.95;;;2.97;;
4096;SDS011;2062;50.694;7.246;2023-10-08T07:56:44;7.23;;;3.10;;
4096;SDS011;2062;50.694;7.246;2023-10-08T07:59:12;9.60;;;3.30;;
4096;SDS011;2062;50.694;7.246;2023-10-08T08:01:41;11.20;;;3.08;;
4096;SDS011;2062;50.694;7.246;2023-10-08T08:04:10;9.50;;;2.83;;
4096;SDS011;2062;50.694;7.246;2023-10-08T08:06:46;9.98;;;3.22;;
4096;SDS011;2062;50.694;7.246;2023-10-08T08:09:15;9.67;;;2.67;;
4096;SDS011;2062;50.694;7.246;2023-10-08T08:11:44;10.55;;;3.33;;
4096;SDS011;2062;50.694;7.246;2023-10-08T08:14:12;8.05;;;3.05;;
4096;SDS011;2062;50.694;7.246;2023-10-08T08:16:42;12.68;;;2.95;;
4096;SDS011;2062;50.694;7.246;2023-10-08T08:19:14;7.05;;;2.47;;
4096;SDS011;2062;50.694;7.246;2023-10-08T08:21:42;10.33;;;3.33;;
4096;SDS011;2062;50.694;7.246;2023-10-08T08:24:11;9.60;;;3.00;;
4096;SDS011;2062;50.694;7.246;2023-10-08T08:26:39;9.25;;;3.15;;
4096;SDS011;2062;50.694;7.246;2023-10-08T08:29:26;8.80;;;2.90;;
4096;SDS011;2062;50.694;7.246;2023-10-08T08:31:54;9.27;;;3.03;;
4096;SDS011;2062;50.694;7.246;2023-10-08T08:34:23;9.30;;;2.90;;
4096;SDS011;2062;50.694;7.246;2023-10-08T08:36:50;9.50;;;3.15;;
4096;SDS011;2062;50.694;7.246;2023-10-08T08:39:16;11.27;;;3.50;;
4096;SDS011;2062;50.694;7.246;2023-10-08T08:41:58;9.68;;;3.17;;
4096;SDS011;2062;50.694;7.246;2023-10-08T08:44:27;10.60;;;3.30;;
4096;SDS011;2062;50.694;7.246;2023-10-08T08:46:55;11.43;;;3.40;;
4096;SDS011;2062;50.694;7.246;2023-10-08T08:49:27;10.68;;;3.15;;
4096;SDS011;2062;50.694;7.246;2023-10-08T08:51:55;10.52;;;3.20;;
4096;SDS011;2062;50.694;7.246;2023-10-08T08:54:25;8.23;;;2.85;;
4096;SDS011;2062;50.694;7.246;2023-10-08T08:56:56;8.07;;;3.00;;
4096;SDS011;2062;50.694;7.246;2023-10-08T08:59:25;11.70;;;3.37;;
4096;SDS011;2062;50.694;7.246;2023-10-08T09:01:55;8.50;;;2.97;;
4096;SDS011;2062;50.694;7.246;2023-10-08T09:04:29;11.68;;;3.42;;
4096;SDS011;2062;50.694;7.246;2023-10-08T09:06:56;8.57;;;3.20;;
4096;SDS011;2062;50.694;7.246;2023-10-08T09:09:30;10.07;;;3.33;;
4096;SDS011;2062;50.694;7.246;2023-10-08T09:11:57;8.27;;;3.53;;
4096;SDS011;2062;50.694;7.246;2023-10-08T09:14:25;10.07;;;3.20;;
4096;SDS011;2062;50.694;7.246;2023-10-08T09:16:55;11.00;;;3.83;;
4096;SDS011;2062;50.694;7.246;2023-10-08T09:19:22;12.82;;;3.80;;
4096;SDS011;2062;50.694;7.246;2023-10-08T09:22:00;10.20;;;3.40;;
4096;SDS011;2062;50.694;7.246;2023-10-08T09:24:29;12.77;;;3.90;;
4096;SDS011;2062;50.694;7.246;2023-10-08T09:26:56;12.55;;;3.25;;
4096;SDS011;2062;50.694;7.246;2023-10-08T09:29:23;11.57;;;3.80;;
4096;SDS011;2062;50.694;7.246;2023-10-08T09:31:52;11.88;;;4.05;;
4096;SDS011;2062;50.694;7.246;2023-10-08T09:34:20;14.00;;;3.92;;
4096;SDS011;2062;50.694;7.246;2023-10-08T09:36:48;11.37;;;3.53;;
4096;SDS011;2062;50.694;7.246;2023-10-08T09:39:16;12.57;;;3.63;;
4096;SDS011;2062;50.694;7.246;2023-10-08T09:41:48;10.98;;;3.80;;
4096;SDS011;2062;50.694;7.246;2023-10-08T09:44:16;9.82;;;3.50;;
4096;SDS011;2062;50.694;7.246;2023-10-08T09:46:45;12.82;;;3.78;;
4096;SDS011;2062;50.694;7.246;2023-10-08T09:49:18;11.10;;;3.60;;
4096;SDS011;2062;50.694;7.246;2023-10-08T09:51:55;12.60;;;3.75;;
4096;SDS011;2062;50.694;7.246;2023-10-08T09:54:25;10.93;;;4.10;;
4096;SDS011;2062;50.694;7.246;2023-10-08T09:56:57;11.55;;;3.92;;
4096;SDS011;2062;50.694;7.246;2023-10-08T09:59:25;9.57;;;3.85;;
4096;SDS011;2062;50.694;7.246;2023-10-08T10:01:53;12.10;;;3.97;;
4096;SDS011;2062;50.694;7.246;2023-10-08T10:04:24;11.23;;;3.88;;
4096;SDS011;2062;50.694;7.246;2023-10-08T10:06:53;14.55;;;3.97;;
4096;SDS011;2062;50.694;7.246;2023-10-08T10:09:24;11.52;;;3.90;;
4096;SDS011;2062;50.694;7.246;2023-10-08T10:11:53;12.93;;;4.18;;
4096;SDS011;2062;50.694;7.246;2023-10-08T10:14:22;10.73;;;3.83;;
4096;SDS011;2062;50.694;7.246;2023-10-08T10:16:54;11.75;;;4.03;;
4096;SDS011;2062;50.694;7.246;2023-10-08T10:19:36;10.88;;;4.35;;
4096;SDS011;2062;50.694;7.246;2023-10-08T10:22:03;11.75;;;3.78;;
4096;SDS011;2062;50.694;7.246;2023-10-08T10:24:33;10.82;;;4.07;;
4096;SDS011;2062;50.694;7.246;2023-10-08T10:27:12;10.97;;;4.07;;
4096;SDS011;2062;50.694;7.246;2023-10-08T10:29:40;12.60;;;4.13;;
4096;SDS011;2062;50.694;7.246;2023-10-08T10:32:09;13.27;;;4.20;;
4096;SDS011;2062;50.694;7.246;2023-10-08T10:34:38;10.90;;;4.28;;
4096;SDS011;2062;50.694;7.246;2023-10-08T10:37:05;17.38;;;4.53;;
4096;SDS011;2062;50.694;7.246;2023-10-08T10:39:36;11.03;;;4.33;;
4096;SDS011;2062;50.694;7.246;2023-10-08T10:42:07;9.60;;;4.00;;
4096;SDS011;2062;50.694;7.246;2023-10-08T10:44:45;12.13;;;4.07;;
4096;SDS011;2062;50.694;7.246;2023-10-08T10:47:14;15.40;;;4.30;;
4096;SDS011;2062;50.694;7.246;2023-10-08T10:50:08;11.43;;;4.45;;
4096;SDS011;2062;50.694;7.246;2023-10-08T10:52:53;13.67;;;4.63;;
4096;SDS011;2062;50.694;7.246;2023-10-08T10:55:20;15.88;;;5.03;;
4096;SDS011;2062;50.694;7.246;2023-10-08T10:57:56;13.65;;;4.80;;
4096;SDS011;2062;50.694;7.246;2023-10-08T11:00:36;12.32;;;4.90;;
4096;SDS011;2062;50.694;7.246;2023-10-08T11:03:13;13.60;;;4.63;;
4096;SDS011;2062;50.694;7.246;2023-10-08T11:05:43;11.33;;;4.40;;
4096;SDS011;2062;50.694;7.246;2023-10-08T11:08:15;13.63;;;4.20;;
4096;SDS011;2062;50.694;7.246;2023-10-08T11:10:46;12.90;;;5.28;;
4096;SDS011;2062;50.694;7.246;2023-10-08T11:13:16;15.65;;;5.05;;
4096;SDS011;2062;50.694;7.246;2023-10-08T11:15:44;16.67;;;5.22;;
4096;SDS011;2062;50.694;7.246;2023-10-08T11:18:15;13.87;;;4.90;;
4096;SDS011;2062;50.694;7.246;2023-10-08T11:20:43;13.10;;;4.68;;
4096;SDS011;2062;50.694;7.246;2023-10-08T11:23:10;15.60;;;5.25;;
4096;SDS011;2062;50.694;7.246;2023-10-08T11:25:54;15.52;;;5.43;;
4096;SDS011;2062;50.694;7.246;2023-10-08T11:28:25;16.63;;;5.30;;
4096;SDS011;2062;50.694;7.246;2023-10-08T11:30:52;15.53;;;5.67;;
4096;SDS011;2062;50.694;7.246;2023-10-08T11:33:19;14.45;;;5.22;;
4096;SDS011;2062;50.694;7.246;2023-10-08T11:35:58;14.27;;;5.57;;
4096;SDS011;2062;50.694;7.246;2023-10-08T11:38:26;18.08;;;5.35;;
4096;SDS011;2062;50.694;7.246;2023-10-08T11:40:55;14.27;;;5.30;;
4096;SDS011;2062;50.694;7.246;2023-10-08T11:43:27;12.67;;;4.77;;
4096;SDS011;2062;50.694;7.246;2023-10-08T11:45:53;14.23;;;5.57;;
4096;SDS011;2062;50.694;7.246;2023-10-08T11:48:20;16.02;;;5.18;;
4096;SDS011;2062;50.694;7.246;2023-10-08T11:50:53;16.25;;;5.35;;
4096;SDS011;2062;50.694;7.246;2023-10-08T11:53:22;15.68;;;5.75;;
4096;SDS011;2062;50.694;7.246;2023-10-08T11:55:49;15.60;;;6.17;;
4096;SDS011;2062;50.694;7.246;2023-10-08T11:58:22;14.93;;;5.60;;
4096;SDS011;2062;50.694;7.246;2023-10-08T12:01:02;16.17;;;5.85;;
4096;SDS011;2062;50.694;7.246;2023-10-08T12:03:29;16.77;;;6.43;;
4096;SDS011;2062;50.694;7.246;2023-10-08T12:05:57;17.95;;;5.78;;
4096;SDS011;2062;50.694;7.246;2023-10-08T12:08:25;16.60;;;5.80;;
4096;SDS011;2062;50.694;7.246;2023-10-08T12:10:53;14.20;;;6.00;;
4096;SDS011;2062;50.694;7.246;2023-10-08T12:13:20;18.85;;;6.38;;
4096;SDS011;2062;50.694;7.246;2023-10-08T12:15:51;16.15;;;5.93;;
4096;SDS011;2062;50.694;7.246;2023-10-08T12:18:23;15.75;;;5.95;;
4096;SDS011;2062;50.694;7.246;2023-10-08T12:20:50;16.87;;;6.17;;
4096;SDS011;2062;50.694;7.246;2023-10-08T12:23:19;14.32;;;5.47;;
4096;SDS011;2062;50.694;7.246;2023-10-08T12:25:50;16.60;;;5.90;;
4096;SDS011;2062;50.694;7.246;2023-10-08T12:28:17;17.52;;;6.45;;
4096;SDS011;2062;50.694;7.246;2023-10-08T12:30:45;15.73;;;6.18;;
4096;SDS011;2062;50.694;7.246;2023-10-08T12:33:13;17.77;;;5.83;;
4096;SDS011;2062;50.694;7.246;2023-10-08T12:35:41;14.23;;;5.85;;
4096;SDS011;2062;50.694;7.246;2023-10-08T12:38:09;15.18;;;5.80;;
4096;SDS011;2062;50.694;7.246;2023-10-08T12:40:38;14.95;;;5.85;;
4096;SDS011;2062;50.694;7.246;2023-10-08T12:43:17;14.45;;;5.78;;
4096;SDS011;2062;50.694;7.246;2023-10-08T12:45:45;13.47;;;4.97;;
4096;SDS011;2062;50.694;7.246;2023-10-08T12:48:19;14.88;;;5.18;;
4096;SDS011;2062;50.694;7.246;2023-10-08T12:50:46;13.93;;;5.15;;
4096;SDS011;2062;50.694;7.246;2023-10-08T12:53:19;14.77;;;5.55;;
4096;SDS011;2062;50.694;7.246;2023-10-08T12:55:49;15.85;;;5.45;;
4096;SDS011;2062;50.694;7.246;2023-10-08T12:58:18;13.00;;;5.30;;
4096;SDS011;2062;50.694;7.246;2023-10-08T13:00:48;12.50;;;5.13;;
4096;SDS011;2062;50.694;7.246;2023-10-08T13:03:23;19.25;;;5.60;;
4096;SDS011;2062;50.694;7.246;2023-10-08T13:05:55;14.82;;;5.55;;
4096;SDS011;2062;50.694;7.246;2023-10-08T13:08:28;15.00;;;5.80;;
4096;SDS011;2062;50.694;7.246;2023-10-08T13:10:55;16.17;;;6.10;;
4096;SDS011;2062;50.694;7.246;2023-10-08T13:13:26;16.73;;;5.75;;
4096;SDS011;2062;50.694;7.246;2023-10-08T13:15:52;12.60;;;5.40;;
4096;SDS011;2062;50.694;7.246;2023-10-08T13:18:21;12.93;;;5.45;;
4096;SDS011;2062;50.694;7.246;2023-10-08T13:20:50;15.70;;;6.40;;
4096;SDS011;2062;50.694;7.246;2023-10-08T13:23:17;14.67;;;5.70;;
4096;SDS011;2062;50.694;7.246;2023-10-08T13:25:45;16.42;;;6.22;;
4096;SDS011;2062;50.694;7.246;2023-10-08T13:28:19;17.27;;;6.63;;
4096;SDS011;2062;50.694;7.246;2023-10-08T13:30:47;17.17;;;6.40;;
4096;SDS011;2062;50.694;7.246;2023-10-08T13:33:17;16.83;;;6.95;;
4096;SDS011;2062;50.694;7.246;2023-10-08T13:35:45;16.30;;;6.10;;
4096;SDS011;2062;50.694;7.246;2023-10-08T13:38:15;18.17;;;6.30;;
4096;SDS011;2062;50.694;7.246;2023-10-08T13:40:44;17.75;;;6.80;;
4096;SDS011;2062;50.694;7.246;2023-10-08T13:43:27;16.58;;;6.32;;
4096;SDS011;2062;50.694;7.246;2023-10-08T13:45:59;17.58;;;5.88;;
4096;SDS011;2062;50.694;7.246;2023-10-08T13:48:29;16.33;;;6.27;;
4096;SDS011;2062;50.694;7.246;2023-10-08T13:50:59;15.48;;;5.95;;
4096;SDS011;2062;50.694;7.246;2023-10-08T13:53:26;15.13;;;5.40;;
4096;SDS011;2062;50.694;7.246;2023-10-08T13:55:55;18.05;;;6.13;;
4096;SDS011;2062;50.694;7.246;2023-10-08T13:58:25;15.40;;;5.95;;
4096;SDS011;2062;50.694;7.246;2023-10-08T14:00:53;13.47;;;5.47;;
4096;SDS011;2062;50.694;7.246;2023-10-08T14:03:20;18.40;;;5.82;;
4096;SDS011;2062;50.694;7.246;2023-10-08T14:05:47;17.65;;;6.25;;
4096;SDS011;2062;50.694;7.246;2023-10-08T14:08:17;17.77;;;6.30;;
4096;SDS011;2062;50.694;7.246;2023-10-08T14:10:44;17.10;;;6.07;;
4096;SDS011;2062;50.694;7.246;2023-10-08T14:13:13;15.53;;;5.73;;
4096;SDS011;2062;50.694;7.246;2023-10-08T14:15:44;16.05;;;6.22;;
4096;SDS011;2062;50.694;7.246;2023-10-08T14:18:13;15.82;;;6.43;;
4096;SDS011;2062;50.694;7.246;2023-10-08T14:20:42;18.90;;;6.53;;
4096;SDS011;2062;50.694;7.246;2023-10-08T14:23:12;16.40;;;6.28;;
4096;SDS011;2062;50.694;7.246;2023-10-08T14:25:42;15.87;;;5.77;;
4096;SDS011;2062;50.694;7.246;2023-10-08T14:28:11;17.63;;;5.93;;
4096;SDS011;2062;50.694;7.246;2023-10-08T14:30:47;16.92;;;6.10;;
4096;SDS011;2062;50.694;7.246;2023-10-08T14:33:18;14.60;;;6.15;;
4096;SDS011;2062;50.694;7.246;2023-10-08T14:35:49;20.00;;;6.20;;
4096;SDS011;2062;50.694;7.246;2023-10-08T14:38:43;14.60;;;6.50;;
4096;SDS011;2062;50.694;7.246;2023-10-08T14:41:28;16.38;;;6.68;;
4096;SDS011;2062;50.694;7.246;2023-10-08T14:44:13;15.80;;;5.68;;
4096;SDS011;2062;50.694;7.246;2023-10-08T14:46:39;14.30;;;5.63;;
4096;SDS011;2062;50.694;7.246;2023-10-08T14:49:06;17.42;;;5.97;;
4096;SDS011;2062;50.694;7.246;2023-10-08T14:51:36;13.47;;;5.63;;
4096;SDS011;2062;50.694;7.246;2023-10-08T14:54:05;14.98;;;5.78;;
4096;SDS011;2062;50.694;7.246;2023-10-08T14:56:35;17.50;;;5.97;;
4096;SDS011;2062;50.694;7.246;2023-10-08T14:59:02;17.85;;;6.15;;
4096;SDS011;2062;50.694;7.246;2023-10-08T15:01:29;14.35;;;6.18;;
4096;SDS011;2062;50.694;7.246;2023-10-08T15:03:59;15.67;;;6.30;;
4096;SDS011;2062;50.694;7.246;2023-10-08T15:06:29;13.93;;;6.10;;
4096;SDS011;2062;50.694;7.246;2023-10-08T15:08:57;16.77;;;6.60;;
4096;SDS011;2062;50.694;7.246;2023-10-08T15:11:24;15.50;;;5.72;;
4096;SDS011;2062;50.694;7.246;2023-10-08T15:13:53;15.63;;;6.15;;
4096;SDS011;2062;50.694;7.246;2023-10-08T15:16:20;14.13;;;5.57;;
4096;SDS011;2062;50.694;7.246;2023-10-08T15:18:48;12.55;;;5.13;;
4096;SDS011;2062;50.694;7.246;2023-10-08T15:21:16;16.38;;;6.00;;
4096;SDS011;2062;50.694;7.246;2023-10-08T15:23:43;14.88;;;5.60;;
4096;SDS011;2062;50.694;7.246;2023-10-08T15:26:11;15.00;;;5.80;;
4096;SDS011;2062;50.694;7.246;2023-10-08T15:28:38;17.33;;;5.50;;
4096;SDS011;2062;50.694;7.246;2023-10-08T15:31:06;14.93;;;5.88;;
4096;SDS011;2062;50.694;7.246;2023-10-08T15:33:33;14.55;;;6.00;;